Time;durP1;ratioP1;P1;durP2;ratioP2;P2;SDS_P1;SDS_P2;PMS_P1;PMS_P2;Temp;Humidity;BMP_temperature;BMP_pressure;BME280_temperature;BME280_humidity;BME280_pressure;Samples;Min_cycle;Max_cycle;Signal;HPM_P1;HPM_P2
2021/12/02 00:01:29;;;;;;;0.52;0.38;;;;;;;;;;7381002;19;20466;-74
2021/12/02 00:03:55;;;;;;;0.40;0.40;;;;;;;;;;7383773;19;20010;-74
2021/12/02 00:06:21;;;;;;;0.65;0.40;;;;;;;;;;7384779;19;20011;-73
2021/12/02 00:08:48;;;;;;;0.75;0.40;;;;;;;;;;7382501;19;20025;-74
2021/12/02 00:11:14;;;;;;;0.40;0.38;;;;;;;;;;7388099;19;20011;-73
2021/12/02 00:16:21;;;;;;;0.47;0.38;;;;;;;;;;7391385;19;20065;-74
2021/12/02 00:21:17;;;;;;;0.50;0.30;;;;;;;;;;7386990;19;20027;-75
2021/12/02 00:23:52;;;;;;;0.40;0.40;;;;;;;;;;7388919;19;20006;-76
2021/12/02 00:26:19;;;;;;;0.70;0.40;;;;;;;;;;7390337;19;20441;-74
2021/12/02 00:28:50;;;;;;;0.52;0.40;;;;;;;;;;7389140;19;20006;-74
2021/12/02 00:31:17;;;;;;;0.52;0.28;;;;;;;;;;7385343;19;20007;-74
2021/12/02 00:33:48;;;;;;;0.20;0.20;;;;;;;;;;7388119;19;20010;-75
2021/12/02 00:36:14;;;;;;;0.28;0.28;;;;;;;;;;7387464;19;20014;-73
2021/12/02 00:38:46;;;;;;;0.25;0.10;;;;;;;;;;7387875;19;20010;-74
2021/12/02 00:41:16;;;;;;;0.52;0.30;;;;;;;;;;7384901;19;20022;-76
2021/12/02 00:43:43;;;;;;;0.22;0.22;;;;;;;;;;7390126;19;20380;-77
2021/12/02 00:46:10;;;;;;;0.22;0.22;;;;;;;;;;7389840;19;20036;-75
2021/12/02 00:48:37;;;;;;;0.30;0.30;;;;;;;;;;7389401;19;20478;-77
2021/12/02 00:51:03;;;;;;;0.60;0.28;;;;;;;;;;7387109;19;20003;-74
2021/12/02 00:53:31;;;;;;;1.65;0.40;;;;;;;;;;7385251;19;19986;-74
2021/12/02 00:55:56;;;;;;;0.73;0.60;;;;;;;;;;7386410;19;20010;-74
2021/12/02 00:58:23;;;;;;;0.30;0.30;;;;;;;;;;7389589;19;20583;-77
2021/12/02 01:00:51;;;;;;;0.55;0.30;;;;;;;;;;7387421;19;20014;-74
2021/12/02 01:03:18;;;;;;;0.20;0.20;;;;;;;;;;7387090;19;20009;-75
2021/12/02 01:05:44;;;;;;;0.50;0.38;;;;;;;;;;7388045;19;20010;-73
2021/12/02 01:08:09;;;;;;;0.40;0.22;;;;;;;;;;7388747;19;20012;-76
2021/12/02 01:10:35;;;;;;;0.20;0.20;;;;;;;;;;7387618;19;20006;-73
2021/12/02 01:13:00;;;;;;;0.38;0.35;;;;;;;;;;7387473;19;20018;-74
2021/12/02 01:15:26;;;;;;;0.30;0.30;;;;;;;;;;7386746;19;20073;-75
2021/12/02 01:17:52;;;;;;;0.30;0.30;;;;;;;;;;7387786;19;20074;-72
2021/12/02 01:20:18;;;;;;;0.28;0.28;;;;;;;;;;7386444;19;20010;-69
2021/12/02 01:22:46;;;;;;;0.32;0.32;;;;;;;;;;7386497;19;20014;-70
2021/12/02 01:25:12;;;;;;;0.25;0.25;;;;;;;;;;7386385;19;20002;-71
2021/12/02 01:27:40;;;;;;;1.17;0.35;;;;;;;;;;7387832;19;20013;-70
2021/12/02 01:30:06;;;;;;;0.30;0.30;;;;;;;;;;7384114;19;20011;-71
2021/12/02 01:32:33;;;;;;;0.40;0.40;;;;;;;;;;7384996;19;20513;-70
2021/12/02 01:35:03;;;;;;;0.65;0.30;;;;;;;;;;7386565;19;20033;-70
2021/12/02 01:37:28;;;;;;;0.30;0.30;;;;;;;;;;7387527;19;20007;-71
2021/12/02 01:39:55;;;;;;;0.20;0.20;;;;;;;;;;7385815;19;20071;-70
2021/12/02 01:42:28;;;;;;;0.45;0.30;;;;;;;;;;7385059;19;20014;-70
2021/12/02 01:44:56;;;;;;;0.80;0.40;;;;;;;;;;7386990;19;20026;-70
2021/12/02 01:47:29;;;;;;;1.50;0.40;;;;;;;;;;7385738;19;20003;-70
2021/12/02 01:50:03;;;;;;;0.63;0.43;;;;;;;;;;7383116;19;20010;-70
2021/12/02 01:52:31;;;;;;;1.05;0.32;;;;;;;;;;7387289;19;20017;-70
2021/12/02 01:55:09;;;;;;;0.50;0.30;;;;;;;;;;7388403;19;19999;-70
2021/12/02 01:57:42;;;;;;;0.40;0.32;;;;;;;;;;7388908;19;20074;-70
2021/12/02 02:00:18;;;;;;;0.85;0.22;;;;;;;;;;7385329;19;20483;-70
2021/12/02 02:02:43;;;;;;;0.85;0.30;;;;;;;;;;7386303;19;20445;-71
2021/12/02 02:05:13;;;;;;;0.65;0.38;;;;;;;;;;7386275;19;20018;-71
2021/12/02 02:07:54;;;;;;;0.30;0.30;;;;;;;;;;7384738;19;20006;-71
2021/12/02 02:10:19;;;;;;;0.32;0.30;;;;;;;;;;7382785;19;20359;-71
2021/12/02 02:12:45;;;;;;;0.95;0.38;;;;;;;;;;7385652;19;19998;-70
2021/12/02 02:15:10;;;;;;;1.15;0.40;;;;;;;;;;7386965;19;20090;-71
2021/12/02 02:20:42;;;;;;;0.20;0.10;;;;;;;;;;7383066;19;20078;-69
2021/12/02 02:23:11;;;;;;;0.30;0.30;;;;;;;;;;7383606;19;20017;-70
2021/12/02 02:25:37;;;;;;;0.65;0.32;;;;;;;;;;7386742;19;20434;-69
2021/12/02 02:28:03;;;;;;;0.10;0.10;;;;;;;;;;7384800;19;20007;-70
2021/12/02 02:30:28;;;;;;;0.30;0.10;;;;;;;;;;7384828;19;20059;-69
2021/12/02 02:32:53;;;;;;;0.35;0.10;;;;;;;;;;7381753;19;19999;-69
2021/12/02 02:35:19;;;;;;;0.13;0.10;;;;;;;;;;7384619;19;20022;-70
2021/12/02 02:37:44;;;;;;;0.25;0.10;;;;;;;;;;7385744;19;20305;-69
2021/12/02 02:40:11;;;;;;;0.82;0.17;;;;;;;;;;7383920;19;20066;-69
2021/12/02 02:42:37;;;;;;;1.08;0.20;;;;;;;;;;7386264;19;20014;-69
2021/12/02 02:45:03;;;;;;;1.08;0.43;;;;;;;;;;7385578;19;20018;-69
2021/12/02 02:47:29;;;;;;;0.20;0.10;;;;;;;;;;7387101;19;20226;-70
2021/12/02 02:49:55;;;;;;;1.42;0.47;;;;;;;;;;7384583;19;20155;-69
2021/12/02 02:52:20;;;;;;;0.47;0.20;;;;;;;;;;7384752;19;20449;-70
2021/12/02 02:54:46;;;;;;;1.30;0.60;;;;;;;;;;7384280;19;20023;-70
2021/12/02 02:57:14;;;;;;;0.65;0.30;;;;;;;;;;7381362;19;20027;-71
2021/12/02 03:07:46;;;;;;;0.38;0.20;;;;;;;;;;7378339;19;20010;-71
2021/12/02 03:13:11;;;;;;;1.13;0.20;;;;;;;;;;7383841;19;20040;-70
2021/12/02 03:18:21;;;;;;;1.85;0.22;;;;;;;;;;7382773;19;20013;-70
2021/12/02 03:20:46;;;;;;;1.15;0.50;;;;;;;;;;7382730;19;20336;-70
2021/12/02 03:23:12;;;;;;;2.88;0.40;;;;;;;;;;7383972;19;20038;-69
2021/12/02 03:25:37;;;;;;;0.20;0.20;;;;;;;;;;7384426;19;19998;-70
2021/12/02 03:28:03;;;;;;;0.77;0.10;;;;;;;;;;7385457;19;20444;-70
2021/12/02 03:30:29;;;;;;;1.05;0.25;;;;;;;;;;7381736;19;20022;-70
2021/12/02 03:32:54;;;;;;;0.10;0.10;;;;;;;;;;7384134;19;20461;-70
2021/12/02 03:35:19;;;;;;;0.60;0.30;;;;;;;;;;7383320;19;20024;-69
2021/12/02 03:37:45;;;;;;;0.60;0.30;;;;;;;;;;7382435;19;20382;-70
2021/12/02 03:40:12;;;;;;;1.38;0.35;;;;;;;;;;7377301;19;20015;-70
2021/12/02 03:42:43;;;;;;;0.82;0.20;;;;;;;;;;7380370;19;20497;-72
2021/12/02 03:45:09;;;;;;;2.53;0.40;;;;;;;;;;7381243;19;20062;-70
2021/12/02 03:47:34;;;;;;;0.10;0.10;;;;;;;;;;7380035;19;20020;-70
2021/12/02 03:49:59;;;;;;;0.75;0.30;;;;;;;;;;7379384;19;20364;-70
2021/12/02 03:52:25;;;;;;;1.52;0.90;;;;;;;;;;7381272;19;20010;-71
2021/12/02 03:54:50;;;;;;;1.00;0.50;;;;;;;;;;7381790;19;20022;-68
2021/12/02 03:57:15;;;;;;;0.55;0.10;;;;;;;;;;7381127;19;20079;-69
2021/12/02 03:59:40;;;;;;;1.48;0.38;;;;;;;;;;7379931;19;20327;-70
2021/12/02 04:02:06;;;;;;;1.02;0.40;;;;;;;;;;7378360;19;21098;-69
2021/12/02 04:04:32;;;;;;;0.65;0.10;;;;;;;;;;7380261;19;20011;-70
2021/12/02 04:06:57;;;;;;;0.00;0.00;;;;;;;;;;7382763;19;20003;-70
2021/12/02 04:09:25;;;;;;;0.30;0.10;;;;;;;;;;7379297;19;20450;-69
2021/12/02 04:14:26;;;;;;;1.20;0.15;;;;;;;;;;7378560;19;20010;-70
2021/12/02 04:16:58;;;;;;;0.52;0.20;;;;;;;;;;7378611;19;20002;-70
2021/12/02 04:19:24;;;;;;;0.22;0.10;;;;;;;;;;7380551;19;20493;-70
2021/12/02 04:21:50;;;;;;;0.68;0.30;;;;;;;;;;7379856;19;20007;-69
2021/12/02 04:24:16;;;;;;;0.45;0.13;;;;;;;;;;7380581;19;20739;-70
2021/12/02 04:26:43;;;;;;;0.52;0.13;;;;;;;;;;7380266;19;20076;-69
2021/12/02 04:29:09;;;;;;;0.17;0.08;;;;;;;;;;7376629;19;20015;-70
2021/12/02 04:31:34;;;;;;;2.17;0.20;;;;;;;;;;7376246;19;20118;-71
2021/12/02 04:34:00;;;;;;;0.00;0.00;;;;;;;;;;7380598;19;20022;-70
2021/12/02 04:36:25;;;;;;;0.25;0.20;;;;;;;;;;7379690;19;20345;-71
2021/12/02 04:38:50;;;;;;;0.32;0.20;;;;;;;;;;7379004;19;20018;-71
2021/12/02 04:41:17;;;;;;;0.65;0.22;;;;;;;;;;7379397;19;19998;-70
2021/12/02 04:43:42;;;;;;;0.77;0.20;;;;;;;;;;7379963;19;20027;-70
2021/12/02 04:46:08;;;;;;;1.40;0.40;;;;;;;;;;7379985;19;20010;-69
2021/12/02 04:48:33;;;;;;;1.40;0.20;;;;;;;;;;7377528;19;20010;-70
2021/12/02 04:50:59;;;;;;;1.00;0.15;;;;;;;;;;7374509;19;20342;-70
2021/12/02 04:53:24;;;;;;;0.60;0.20;;;;;;;;;;7377759;19;20037;-70
2021/12/02 04:55:49;;;;;;;0.10;0.10;;;;;;;;;;7382000;19;20007;-70
2021/12/02 04:58:15;;;;;;;0.38;0.30;;;;;;;;;;7381007;19;20489;-75
2021/12/02 05:00:40;;;;;;;0.50;0.30;;;;;;;;;;7381325;19;20031;-70
2021/12/02 05:03:05;;;;;;;2.80;0.30;;;;;;;;;;7387737;19;20022;-71
2021/12/02 05:05:33;;;;;;;0.38;0.10;;;;;;;;;;7373957;19;20392;-71
2021/12/02 05:08:00;;;;;;;1.45;0.25;;;;;;;;;;7379463;19;20465;-70
2021/12/02 05:10:25;;;;;;;0.95;0.50;;;;;;;;;;7382944;19;20488;-71
2021/12/02 05:12:50;;;;;;;0.10;0.10;;;;;;;;;;7385145;19;20005;-71
2021/12/02 05:15:16;;;;;;;0.57;0.30;;;;;;;;;;7386825;19;20045;-71
2021/12/02 05:17:41;;;;;;;1.67;0.30;;;;;;;;;;7385333;19;19999;-70
2021/12/02 05:20:07;;;;;;;1.10;0.40;;;;;;;;;;7383274;19;20349;-70
2021/12/02 05:22:33;;;;;;;1.17;0.50;;;;;;;;;;7385466;19;20557;-70
2021/12/02 05:24:59;;;;;;;0.98;0.40;;;;;;;;;;7385673;19;20007;-69
2021/12/02 05:27:24;;;;;;;1.40;0.40;;;;;;;;;;7385139;19;19995;-70
2021/12/02 05:29:50;;;;;;;0.40;0.22;;;;;;;;;;7384812;19;20010;-71
2021/12/02 05:32:15;;;;;;;0.20;0.20;;;;;;;;;;7387067;19;20592;-71
2021/12/02 05:34:40;;;;;;;0.40;0.30;;;;;;;;;;7386351;19;20011;-70
2021/12/02 05:37:06;;;;;;;1.42;0.40;;;;;;;;;;7382107;19;20011;-70
2021/12/02 05:39:31;;;;;;;2.70;0.50;;;;;;;;;;7384654;19;20043;-70
2021/12/02 05:41:57;;;;;;;0.35;0.25;;;;;;;;;;7386551;19;20006;-71
2021/12/02 05:44:23;;;;;;;0.15;0.10;;;;;;;;;;7386250;19;20465;-71
2021/12/02 05:46:49;;;;;;;1.33;0.32;;;;;;;;;;7387797;19;20038;-70
2021/12/02 05:49:15;;;;;;;0.20;0.20;;;;;;;;;;7382798;19;20580;-71
2021/12/02 05:51:42;;;;;;;0.75;0.50;;;;;;;;;;7377992;19;20370;-70
2021/12/02 05:54:07;;;;;;;1.73;0.40;;;;;;;;;;7384145;19;20495;-72
2021/12/02 05:56:33;;;;;;;0.95;0.32;;;;;;;;;;7383657;19;20007;-71
2021/12/02 05:58:58;;;;;;;0.40;0.20;;;;;;;;;;7380911;19;20017;-72
2021/12/02 06:01:23;;;;;;;0.13;0.10;;;;;;;;;;7377343;19;20347;-72
2021/12/02 06:03:49;;;;;;;0.50;0.10;;;;;;;;;;7377691;19;20096;-70
2021/12/02 06:06:16;;;;;;;0.80;0.05;;;;;;;;;;7380669;19;20010;-70
2021/12/02 06:08:42;;;;;;;0.70;0.20;;;;;;;;;;7382719;19;20044;-70
2021/12/02 06:11:07;;;;;;;0.30;0.20;;;;;;;;;;7383421;19;19995;-70
2021/12/02 06:13:32;;;;;;;0.35;0.10;;;;;;;;;;7379181;19;20023;-70
2021/12/02 06:15:57;;;;;;;0.70;0.10;;;;;;;;;;7380384;19;20011;-70
2021/12/02 06:18:23;;;;;;;1.35;0.30;;;;;;;;;;7387266;19;20421;-71
2021/12/02 06:20:53;;;;;;;1.00;0.25;;;;;;;;;;7382922;19;20246;-70
2021/12/02 06:23:19;;;;;;;3.13;0.20;;;;;;;;;;7386194;19;20019;-69
2021/12/02 06:25:44;;;;;;;4.30;0.40;;;;;;;;;;7382981;19;20006;-70
2021/12/02 06:28:09;;;;;;;0.05;0.05;;;;;;;;;;7380914;19;19994;-71
2021/12/02 06:30:35;;;;;;;0.68;0.20;;;;;;;;;;7380634;19;20028;-68
2021/12/02 06:33:01;;;;;;;1.77;0.28;;;;;;;;;;7382378;19;20362;-70
2021/12/02 06:35:26;;;;;;;0.60;0.20;;;;;;;;;;7381812;19;20022;-69
2021/12/02 06:37:52;;;;;;;1.75;0.43;;;;;;;;;;7384553;19;20010;-70
2021/12/02 06:40:18;;;;;;;3.45;0.20;;;;;;;;;;7381529;19;20022;-70
2021/12/02 06:42:43;;;;;;;0.43;0.20;;;;;;;;;;7385512;19;20006;-70
2021/12/02 06:45:10;;;;;;;0.47;0.20;;;;;;;;;;7381558;19;20006;-71
2021/12/02 06:47:39;;;;;;;1.88;0.50;;;;;;;;;;7380249;19;20003;-70
2021/12/02 06:50:09;;;;;;;0.10;0.10;;;;;;;;;;7378403;19;20017;-67
2021/12/02 06:52:36;;;;;;;1.95;0.30;;;;;;;;;;7383059;19;20015;-69
2021/12/02 06:55:01;;;;;;;0.43;0.20;;;;;;;;;;7384685;19;20089;-71
2021/12/02 06:57:26;;;;;;;0.50;0.40;;;;;;;;;;7376272;19;20073;-68
2021/12/02 06:59:52;;;;;;;1.70;0.50;;;;;;;;;;7384772;19;20014;-68
2021/12/02 07:02:18;;;;;;;0.85;0.52;;;;;;;;;;7382675;19;19995;-68
2021/12/02 07:04:46;;;;;;;2.40;0.70;;;;;;;;;;7381061;19;20018;-68
2021/12/02 07:07:12;;;;;;;1.25;0.45;;;;;;;;;;7385421;19;20062;-69
2021/12/02 07:09:37;;;;;;;0.50;0.50;;;;;;;;;;7381910;19;20002;-68
2021/12/02 07:12:03;;;;;;;1.02;0.40;;;;;;;;;;7386987;19;20010;-69
2021/12/02 07:14:28;;;;;;;1.95;0.70;;;;;;;;;;7384218;19;20003;-68
2021/12/02 07:16:54;;;;;;;0.73;0.50;;;;;;;;;;7387067;19;20031;-68
2021/12/02 07:19:19;;;;;;;1.23;0.45;;;;;;;;;;7382590;19;20069;-67
2021/12/02 07:21:45;;;;;;;0.43;0.40;;;;;;;;;;7382500;19;19995;-69
2021/12/02 07:24:13;;;;;;;0.60;0.40;;;;;;;;;;7383893;19;20084;-68
2021/12/02 07:26:41;;;;;;;0.40;0.40;;;;;;;;;;7384597;19;20006;-69
2021/12/02 07:29:15;;;;;;;0.90;0.32;;;;;;;;;;7385881;19;20338;-68
2021/12/02 07:31:42;;;;;;;0.30;0.30;;;;;;;;;;7381825;19;20350;-69
2021/12/02 07:34:08;;;;;;;0.80;0.45;;;;;;;;;;7385877;19;19990;-67
2021/12/02 07:36:34;;;;;;;0.50;0.30;;;;;;;;;;7386512;19;20011;-69
2021/12/02 07:39:01;;;;;;;2.60;0.47;;;;;;;;;;7386929;19;20027;-68
2021/12/02 07:41:26;;;;;;;1.63;0.60;;;;;;;;;;7387341;19;20082;-68
2021/12/02 07:43:52;;;;;;;0.45;0.45;;;;;;;;;;7387620;19;20044;-68
2021/12/02 07:46:17;;;;;;;1.42;0.50;;;;;;;;;;7385400;19;20007;-68
2021/12/02 07:48:42;;;;;;;0.65;0.50;;;;;;;;;;7383041;19;20069;-66
2021/12/02 07:51:15;;;;;;;0.75;0.43;;;;;;;;;;7384784;19;20011;-68
2021/12/02 07:53:42;;;;;;;0.93;0.50;;;;;;;;;;7385420;19;20010;-68
2021/12/02 07:56:10;;;;;;;0.93;0.60;;;;;;;;;;7387420;19;20037;-68
2021/12/02 07:58:43;;;;;;;1.58;1.10;;;;;;;;;;7382546;19;21169;-67
2021/12/02 08:01:09;;;;;;;3.67;1.10;;;;;;;;;;7386923;19;20078;-69
2021/12/02 08:03:34;;;;;;;2.70;2.05;;;;;;;;;;7385500;19;19998;-69
2021/12/02 08:06:00;;;;;;;1.33;0.90;;;;;;;;;;7386122;19;20015;-68
2021/12/02 08:08:25;;;;;;;2.05;0.90;;;;;;;;;;7386205;19;20022;-67
2021/12/02 08:10:51;;;;;;;1.92;1.38;;;;;;;;;;7384834;19;20007;-69
2021/12/02 08:13:16;;;;;;;4.38;1.60;;;;;;;;;;7382166;19;20081;-69
2021/12/02 08:15:42;;;;;;;3.65;2.42;;;;;;;;;;7386150;19;20014;-69
2021/12/02 08:18:09;;;;;;;1.20;1.10;;;;;;;;;;7380930;19;20010;-68
2021/12/02 08:20:35;;;;;;;3.45;1.65;;;;;;;;;;7382324;19;20461;-67
2021/12/02 08:23:01;;;;;;;2.10;0.98;;;;;;;;;;7383785;19;20010;-69
2021/12/02 08:25:28;;;;;;;1.95;0.80;;;;;;;;;;7385109;19;20003;-69
2021/12/02 08:27:55;;;;;;;1.17;0.70;;;;;;;;;;7384488;19;20031;-69
2021/12/02 08:30:24;;;;;;;0.93;0.57;;;;;;;;;;7377340;19;20014;-68
2021/12/02 08:32:50;;;;;;;0.50;0.50;;;;;;;;;;7388145;19;20691;-66
2021/12/02 08:35:16;;;;;;;1.83;0.80;;;;;;;;;;7389675;19;20011;-69
2021/12/02 08:37:46;;;;;;;2.70;0.90;;;;;;;;;;7389756;19;20007;-69
2021/12/02 08:40:18;;;;;;;0.75;0.70;;;;;;;;;;7390696;19;20763;-69
2021/12/02 08:42:47;;;;;;;1.02;0.70;;;;;;;;;;7391252;19;20007;-69
2021/12/02 08:45:14;;;;;;;1.98;0.80;;;;;;;;;;7392178;19;20013;-68
2021/12/02 08:47:44;;;;;;;1.92;0.65;;;;;;;;;;7394049;19;20014;-69
2021/12/02 08:50:12;;;;;;;3.15;1.23;;;;;;;;;;7387317;19;20002;-68
2021/12/02 08:52:37;;;;;;;3.53;1.25;;;;;;;;;;7391170;19;20014;-69
2021/12/02 08:55:03;;;;;;;2.05;0.93;;;;;;;;;;7393458;19;20559;-69
2021/12/02 08:57:28;;;;;;;1.95;0.60;;;;;;;;;;7393981;19;20002;-68
2021/12/02 08:59:54;;;;;;;2.50;0.50;;;;;;;;;;7386677;19;20013;-67
2021/12/02 09:02:19;;;;;;;3.42;0.80;;;;;;;;;;7390803;19;20035;-72
2021/12/02 09:04:45;;;;;;;0.75;0.47;;;;;;;;;;7387185;19;20075;-75
2021/12/02 09:07:10;;;;;;;2.92;0.57;;;;;;;;;;7392533;19;20680;-73
2021/12/02 09:09:36;;;;;;;0.75;0.40;;;;;;;;;;7391599;19;20009;-73
2021/12/02 09:12:02;;;;;;;1.00;0.47;;;;;;;;;;7391142;19;20355;-73
2021/12/02 09:14:28;;;;;;;2.25;0.45;;;;;;;;;;7392390;19;20378;-73
2021/12/02 09:16:55;;;;;;;1.40;0.50;;;;;;;;;;7393124;19;20070;-73
2021/12/02 09:19:20;;;;;;;1.33;0.50;;;;;;;;;;7392155;19;20050;-73
2021/12/02 09:21:47;;;;;;;1.83;0.47;;;;;;;;;;7386620;19;20026;-73
2021/12/02 09:24:13;;;;;;;0.77;0.50;;;;;;;;;;7390894;19;20492;-73
2021/12/02 09:26:38;;;;;;;1.98;0.65;;;;;;;;;;7393079;19;20041;-73
2021/12/02 09:29:05;;;;;;;1.08;0.50;;;;;;;;;;7390773;19;20007;-73
2021/12/02 09:31:31;;;;;;;2.45;0.80;;;;;;;;;;7388863;19;19999;-74
2021/12/02 09:33:57;;;;;;;1.95;0.60;;;;;;;;;;7388599;19;20344;-74
2021/12/02 09:36:22;;;;;;;0.70;0.40;;;;;;;;;;7392907;19;20457;-74
2021/12/02 09:38:48;;;;;;;3.35;0.50;;;;;;;;;;7392171;19;20037;-74
2021/12/02 09:41:13;;;;;;;2.15;0.60;;;;;;;;;;7386613;19;20375;-73
2021/12/02 09:43:39;;;;;;;1.55;0.45;;;;;;;;;;7388872;19;20153;-75
2021/12/02 09:46:05;;;;;;;1.05;0.60;;;;;;;;;;7389368;19;20016;-74
2021/12/02 09:48:31;;;;;;;1.67;0.60;;;;;;;;;;7389440;19;20038;-75
2021/12/02 09:53:32;;;;;;;2.17;0.70;;;;;;;;;;7388788;19;20118;-73
2021/12/02 09:56:13;;;;;;;2.05;0.60;;;;;;;;;;7390717;19;20080;-74
2021/12/02 09:58:38;;;;;;;1.60;0.55;;;;;;;;;;7390455;19;20091;-74
2021/12/02 10:03:34;;;;;;;1.77;0.77;;;;;;;;;;7390544;19;20010;-74
2021/12/02 10:06:18;;;;;;;1.33;0.43;;;;;;;;;;7387563;19;20061;-73
2021/12/02 10:09:05;;;;;;;1.90;0.60;;;;;;;;;;7386078;19;20021;-73
2021/12/02 10:11:36;;;;;;;3.10;0.60;;;;;;;;;;7380411;19;20022;-74
2021/12/02 10:14:18;;;;;;;0.60;0.30;;;;;;;;;;7389096;19;20040;-74
2021/12/02 10:16:45;;;;;;;3.25;0.40;;;;;;;;;;7389500;19;20078;-74
2021/12/02 10:19:32;;;;;;;2.78;0.50;;;;;;;;;;7385439;19;20011;-74
2021/12/02 10:22:04;;;;;;;3.13;0.80;;;;;;;;;;7385436;19;20011;-74
2021/12/02 10:24:30;;;;;;;2.05;0.65;;;;;;;;;;7389182;19;20329;-74
2021/12/02 10:26:58;;;;;;;3.63;0.82;;;;;;;;;;7388461;19;20457;-74
2021/12/02 10:29:28;;;;;;;1.25;0.70;;;;;;;;;;7386497;19;20006;-73
2021/12/02 10:32:08;;;;;;;2.13;0.60;;;;;;;;;;7382367;19;20014;-74
2021/12/02 10:34:57;;;;;;;1.73;0.60;;;;;;;;;;7382350;19;20007;-74
2021/12/02 10:37:31;;;;;;;2.15;0.47;;;;;;;;;;7391613;19;20123;-74
2021/12/02 10:40:09;;;;;;;0.55;0.40;;;;;;;;;;7383864;19;20438;-74
2021/12/02 10:42:38;;;;;;;7.13;0.70;;;;;;;;;;7388332;19;20020;-75
2021/12/02 10:45:06;;;;;;;1.92;0.70;;;;;;;;;;7387600;19;20014;-74
2021/12/02 10:47:33;;;;;;;0.77;0.68;;;;;;;;;;7388302;19;20007;-74
2021/12/02 10:50:10;;;;;;;1.13;0.40;;;;;;;;;;7387775;19;20006;-74
2021/12/02 10:52:36;;;;;;;2.38;0.55;;;;;;;;;;7387034;19;20374;-75
2021/12/02 10:55:14;;;;;;;3.20;1.30;;;;;;;;;;7386399;19;20003;-75
2021/12/02 10:57:46;;;;;;;0.98;0.50;;;;;;;;;;7385701;19;20481;-73
2021/12/02 11:00:20;;;;;;;3.17;0.98;;;;;;;;;;7383663;19;20388;-74
2021/12/02 11:02:48;;;;;;;2.75;0.95;;;;;;;;;;7390296;19;20006;-74
2021/12/02 11:05:31;;;;;;;1.75;0.70;;;;;;;;;;7386568;19;20574;-74
2021/12/02 11:08:05;;;;;;;4.43;0.70;;;;;;;;;;7388668;19;20002;-74
2021/12/02 11:10:37;;;;;;;1.70;0.52;;;;;;;;;;7385362;19;19999;-74
2021/12/02 11:13:04;;;;;;;0.80;0.50;;;;;;;;;;7381727;19;20015;-74
2021/12/02 11:15:31;;;;;;;2.83;0.85;;;;;;;;;;7386371;19;20006;-74
2021/12/02 11:17:59;;;;;;;3.03;1.95;;;;;;;;;;7386393;19;20014;-75
2021/12/02 11:20:36;;;;;;;2.70;1.52;;;;;;;;;;7384992;19;20074;-74
2021/12/02 11:23:06;;;;;;;1.83;0.98;;;;;;;;;;7386916;19;20079;-74
2021/12/02 11:25:34;;;;;;;4.38;0.63;;;;;;;;;;7387481;19;20022;-74
2021/12/02 11:28:05;;;;;;;1.77;0.40;;;;;;;;;;7386501;19;20005;-74
2021/12/02 11:30:31;;;;;;;3.03;0.77;;;;;;;;;;7386082;19;20002;-73
2021/12/02 11:33:02;;;;;;;2.97;0.60;;;;;;;;;;7385530;19;20355;-74
2021/12/02 11:35:31;;;;;;;2.78;0.60;;;;;;;;;;7388229;19;20110;-74
2021/12/02 11:38:01;;;;;;;2.03;0.77;;;;;;;;;;7388828;19;20077;-74
2021/12/02 11:40:30;;;;;;;2.78;0.57;;;;;;;;;;7382937;19;20018;-73
2021/12/02 11:42:56;;;;;;;1.13;0.38;;;;;;;;;;7387296;19;20351;-74
2021/12/02 11:45:24;;;;;;;1.42;0.52;;;;;;;;;;7386316;19;20049;-73
2021/12/02 11:47:51;;;;;;;1.83;0.45;;;;;;;;;;7387773;19;19994;-74
2021/12/02 11:50:18;;;;;;;4.47;1.10;;;;;;;;;;7384083;19;20014;-73
2021/12/02 11:52:44;;;;;;;1.40;0.73;;;;;;;;;;7381565;19;20007;-74
2021/12/02 11:55:38;;;;;;;2.33;1.30;;;;;;;;;;7385129;19;20031;-74
2021/12/02 11:58:04;;;;;;;4.40;1.50;;;;;;;;;;7384021;19;20124;-73
2021/12/02 12:00:30;;;;;;;3.75;1.55;;;;;;;;;;7383624;19;20007;-74
2021/12/02 12:03:06;;;;;;;6.10;1.30;;;;;;;;;;7384048;19;20085;-74
2021/12/02 12:05:35;;;;;;;2.35;1.13;;;;;;;;;;7394451;19;20023;-74
2021/12/02 12:08:02;;;;;;;1.80;0.73;;;;;;;;;;7399521;19;20003;-74
2021/12/02 12:10:41;;;;;;;2.28;1.05;;;;;;;;;;7396736;19;20041;-73
2021/12/02 12:13:24;;;;;;;5.70;0.60;;;;;;;;;;7398169;19;20031;-74
2021/12/02 12:15:55;;;;;;;1.52;0.38;;;;;;;;;;7396166;19;20455;-74
2021/12/02 12:18:26;;;;;;;0.80;0.40;;;;;;;;;;7397675;19;20170;-74
2021/12/02 12:20:55;;;;;;;2.08;0.50;;;;;;;;;;7395401;19;19999;-74
2021/12/02 12:23:35;;;;;;;1.58;0.43;;;;;;;;;;7397476;19;20364;-74
2021/12/02 12:26:18;;;;;;;2.65;0.57;;;;;;;;;;7399003;19;20021;-73
2021/12/02 12:29:09;;;;;;;1.73;0.60;;;;;;;;;;7396647;19;20031;-74
2021/12/02 12:31:53;;;;;;;3.50;0.70;;;;;;;;;;7396560;19;20014;-74
2021/12/02 12:34:28;;;;;;;1.02;0.60;;;;;;;;;;7396115;19;20378;-74
2021/12/02 12:36:53;;;;;;;1.42;0.20;;;;;;;;;;7398988;19;20013;-74
2021/12/02 12:39:20;;;;;;;2.63;0.40;;;;;;;;;;7396620;19;19999;-74
2021/12/02 12:42:17;;;;;;;1.05;0.30;;;;;;;;;;7393186;19;20470;-75
2021/12/02 12:44:50;;;;;;;1.90;0.43;;;;;;;;;;7399678;19;20510;-74
2021/12/02 12:47:18;;;;;;;1.30;0.20;;;;;;;;;;7392621;19;20368;-74
2021/12/02 12:49:45;;;;;;;0.82;0.40;;;;;;;;;;7391572;19;20091;-74
2021/12/02 12:52:16;;;;;;;1.13;0.60;;;;;;;;;;7386801;19;20019;-74
2021/12/02 12:54:41;;;;;;;1.05;0.30;;;;;;;;;;7392284;19;20420;-74
2021/12/02 12:57:08;;;;;;;2.53;0.85;;;;;;;;;;7392591;19;20009;-74
2021/12/02 12:59:54;;;;;;;1.58;0.70;;;;;;;;;;7390652;19;20119;-74
2021/12/02 13:02:20;;;;;;;1.15;0.82;;;;;;;;;;7390856;19;20043;-74
2021/12/02 13:04:52;;;;;;;3.75;1.00;;;;;;;;;;7395241;19;20361;-74
2021/12/02 13:07:19;;;;;;;1.52;0.80;;;;;;;;;;7410513;19;19994;-73
2021/12/02 13:10:11;;;;;;;1.45;1.20;;;;;;;;;;7410571;19;20018;-74
2021/12/02 13:12:36;;;;;;;4.35;1.15;;;;;;;;;;7405782;19;20010;-74
2021/12/02 13:15:06;;;;;;;4.05;1.70;;;;;;;;;;7407339;19;20035;-74
2021/12/02 13:17:36;;;;;;;2.60;1.20;;;;;;;;;;7386853;19;20010;-74
2021/12/02 13:20:14;;;;;;;2.90;1.40;;;;;;;;;;7381854;19;20007;-74
2021/12/02 13:22:39;;;;;;;3.13;0.57;;;;;;;;;;7385399;19;20003;-74
2021/12/02 13:25:40;;;;;;;2.78;0.63;;;;;;;;;;7384114;19;20349;-74
2021/12/02 13:28:18;;;;;;;3.63;0.40;;;;;;;;;;7383878;19;20007;-73
2021/12/02 13:30:53;;;;;;;1.17;0.70;;;;;;;;;;7381496;19;20039;-74
2021/12/02 13:33:19;;;;;;;;;;;;;;;;;;7386854;19;20010;-74
2021/12/02 13:35:44;;;;;;;0.77;0.40;;;;;;;;;;7380666;19;19989;-74
2021/12/02 13:38:09;;;;;;;0.65;0.47;;;;;;;;;;7380540;19;20412;-74
2021/12/02 13:40:41;;;;;;;0.93;0.40;;;;;;;;;;7379734;19;20014;-75
2021/12/02 13:43:09;;;;;;;0.55;0.40;;;;;;;;;;7382444;19;20373;-74
2021/12/02 13:45:34;;;;;;;0.63;0.40;;;;;;;;;;7384331;19;20013;-74
2021/12/02 13:48:15;;;;;;;0.30;0.30;;;;;;;;;;7383817;19;20508;-74
2021/12/02 13:50:42;;;;;;;0.95;0.40;;;;;;;;;;7385318;19;20333;-75
2021/12/02 13:53:09;;;;;;;2.53;0.80;;;;;;;;;;7382885;19;20005;-75
2021/12/02 13:55:37;;;;;;;2.55;1.08;;;;;;;;;;7387153;19;20017;-75
2021/12/02 14:00:38;;;;;;;0.10;0.10;;;;;;;;;;7384727;19;20015;-73
2021/12/02 14:03:10;;;;;;;0.93;0.10;;;;;;;;;;7382442;19;20007;-74
2021/12/02 14:05:38;;;;;;;0.10;0.10;;;;;;;;;;7386500;19;20007;-76
2021/12/02 14:08:07;;;;;;;0.10;0.10;;;;;;;;;;7385387;19;20006;-76
2021/12/02 14:10:34;;;;;;;0.40;0.40;;;;;;;;;;7380749;19;20094;-76
2021/12/02 14:13:03;;;;;;;0.10;0.10;;;;;;;;;;7383229;19;20015;-76
2021/12/02 14:15:36;;;;;;;0.10;0.10;;;;;;;;;;7388056;19;20003;-76
2021/12/02 14:18:19;;;;;;;0.05;0.05;;;;;;;;;;7389978;19;20022;-76
2021/12/02 14:21:00;;;;;;;0.15;0.10;;;;;;;;;;7389101;19;20490;-75
2021/12/02 14:23:42;;;;;;;0.08;0.08;;;;;;;;;;7389702;19;20016;-76
2021/12/02 14:26:14;;;;;;;0.10;0.10;;;;;;;;;;7388407;19;20002;-75
2021/12/02 14:28:42;;;;;;;0.65;0.10;;;;;;;;;;7386312;19;20062;-75
2021/12/02 14:31:20;;;;;;;0.03;0.00;;;;;;;;;;7385157;19;20425;-74
2021/12/02 14:33:47;;;;;;;0.20;0.20;;;;;;;;;;7387233;19;20428;-74
2021/12/02 14:36:15;;;;;;;0.10;0.10;;;;;;;;;;7385788;19;20017;-75
2021/12/02 14:38:50;;;;;;;0.85;0.38;;;;;;;;;;7389380;19;20025;-75
2021/12/02 14:41:16;;;;;;;0.85;0.60;;;;;;;;;;7388880;19;20007;-75
2021/12/02 14:43:51;;;;;;;0.30;0.30;;;;;;;;;;7389261;19;20010;-74
2021/12/02 14:46:22;;;;;;;0.40;0.30;;;;;;;;;;7389631;19;20106;-74
2021/12/02 14:49:00;;;;;;;0.20;0.20;;;;;;;;;;7389040;19;20094;-74
2021/12/02 14:51:25;;;;;;;0.10;0.10;;;;;;;;;;7387186;19;20031;-74
2021/12/02 14:53:57;;;;;;;0.50;0.30;;;;;;;;;;7386004;19;20063;-74
2021/12/02 14:56:32;;;;;;;0.10;0.10;;;;;;;;;;7390038;19;20006;-76
2021/12/02 14:59:09;;;;;;;;;;;;;;;;;;7390030;19;20007;-74
2021/12/02 15:01:34;;;;;;;;;;;;;;;;;;7388907;19;19921;-74
2021/12/02 15:04:17;;;;;;;1.70;1.10;;;;;;;;;;7386452;19;19918;-74
2021/12/02 15:06:43;;;;;;;1.77;1.00;;;;;;;;;;7388285;19;20456;-74
2021/12/02 15:09:47;;;;;;;0.50;0.50;;;;;;;;;;7386428;19;20014;-74
2021/12/02 15:12:16;;;;;;;4.75;2.05;;;;;;;;;;7382348;19;20023;-75
2021/12/02 15:14:44;;;;;;;4.53;2.00;;;;;;;;;;7384835;19;20018;-75
2021/12/02 15:17:11;;;;;;;2.45;0.90;;;;;;;;;;7389251;19;20031;-75
2021/12/02 15:19:48;;;;;;;0.60;0.38;;;;;;;;;;7385284;19;20010;-75
2021/12/02 15:22:31;;;;;;;0.70;0.57;;;;;;;;;;7385012;19;20503;-75
2021/12/02 15:25:14;;;;;;;0.73;0.60;;;;;;;;;;7386809;19;20143;-75